createdAt,value
2023-09-14T00:01:44.088Z,100214.91
2023-09-14T00:04:13.113Z,100215.59
2023-09-14T00:06:41.233Z,100220.34
2023-09-14T00:09:08.640Z,100214.06
2023-09-14T00:11:36.689Z,100217.47
2023-09-14T00:14:04.101Z,100220.81
2023-09-14T00:16:32.009Z,100223.63
2023-09-14T00:18:59.479Z,100226.19
2023-09-14T00:21:28.804Z,100221.88
2023-09-14T00:23:56.089Z,100226.19
2023-09-14T00:26:23.826Z,100223.44
2023-09-14T00:28:51.243Z,100227.22
2023-09-14T00:31:19.083Z,100229.78
2023-09-14T00:33:46.485Z,100228.25
2023-09-14T00:36:14.221Z,100223.91
2023-09-14T00:38:43.087Z,100215.72
2023-09-14T00:41:10.984Z,100226.31
2023-09-14T00:43:38.272Z,100227.50
2023-09-14T00:46:09.215Z,100227.56
2023-09-14T00:48:36.600Z,100234.16
2023-09-14T00:51:04.707Z,100230.13
2023-09-14T00:53:32.316Z,100241.19
2023-09-14T00:56:04.136Z,100238.25
2023-09-14T00:58:31.632Z,100232.81
2023-09-14T01:01:03.698Z,100236.59
2023-09-14T01:03:31.853Z,100231.84
2023-09-14T01:05:59.701Z,100235.47
2023-09-14T01:08:27.420Z,100233.97
2023-09-14T01:10:55.364Z,100236.69
2023-09-14T01:13:32.188Z,100244.00
2023-09-14T01:16:14.493Z,100246.88
2023-09-14T01:18:47.452Z,100245.47
2023-09-14T01:21:41.710Z,100240.16
2023-09-14T01:24:21.321Z,100239.22
2023-09-14T01:26:51.573Z,100241.22
2023-09-14T01:29:19.034Z,100238.47
2023-09-14T01:31:46.705Z,100235.31
2023-09-14T01:34:14.540Z,100227.56
2023-09-14T01:36:49.601Z,100229.69
2023-09-14T01:39:17.937Z,100233.72
2023-09-14T01:41:45.942Z,100243.91
2023-09-14T01:44:19.292Z,100232.72
2023-09-14T01:46:47.803Z,100243.31
2023-09-14T01:49:15.266Z,100246.63
2023-09-14T01:51:43.079Z,100244.88
2023-09-14T01:54:10.394Z,100245.84
2023-09-14T01:56:38.144Z,100239.09
2023-09-14T01:59:05.567Z,100242.88
2023-09-14T02:01:43.410Z,100249.00
2023-09-14T02:04:21.564Z,100252.72
2023-09-14T02:06:54.194Z,100255.84
2023-09-14T02:09:24.739Z,100242.97
2023-09-14T02:11:52.629Z,100247.03
2023-09-14T02:14:20.014Z,100248.53
2023-09-14T02:16:53.011Z,100259.06
2023-09-14T02:19:20.421Z,100262.72
2023-09-14T02:21:48.347Z,100258.19
2023-09-14T02:24:15.802Z,100260.97
2023-09-14T02:26:48.404Z,100261.66
2023-09-14T02:29:15.822Z,100265.47
2023-09-14T02:31:44.160Z,100273.78
2023-09-14T02:34:13.229Z,100281.22
2023-09-14T02:36:41.186Z,100287.59
2023-09-14T02:39:11.303Z,100286.69
2023-09-14T02:41:39.083Z,100289.06
2023-09-14T02:44:06.782Z,100285.91
2023-09-14T02:46:34.817Z,100280.81
2023-09-14T02:49:03.002Z,100282.69
2023-09-14T02:51:32.284Z,100277.16
2023-09-14T02:53:59.699Z,100278.59
2023-09-14T02:56:27.458Z,100280.94
2023-09-14T02:58:54.842Z,100289.28
2023-09-14T03:01:22.723Z,100288.53
2023-09-14T03:03:50.455Z,100296.50
2023-09-14T03:06:18.488Z,100302.41
2023-09-14T03:08:51.813Z,100311.53
2023-09-14T03:11:19.671Z,100307.69
2023-09-14T03:13:47.048Z,100313.19
2023-09-14T03:16:23.548Z,100313.03
2023-09-14T03:18:51.056Z,100322.75
2023-09-14T03:21:29.363Z,100316.53
2023-09-14T03:23:58.369Z,100329.41
2023-09-14T03:26:26.349Z,100313.03
2023-09-14T03:28:54.169Z,100322.41
2023-09-14T03:31:22.506Z,100322.50
2023-09-14T03:33:52.336Z,100318.75
2023-09-14T03:36:20.782Z,100322.78
2023-09-14T03:38:53.356Z,100318.75
2023-09-14T03:41:31.377Z,100326.22
2023-09-14T03:43:58.928Z,100329.41
2023-09-14T03:46:28.812Z,100333.03
2023-09-14T03:48:56.486Z,100326.63
2023-09-14T03:51:24.833Z,100334.78
2023-09-14T03:53:57.969Z,100342.63
2023-09-14T03:56:27.294Z,100345.34
2023-09-14T03:58:54.696Z,100347.47
2023-09-14T04:01:22.753Z,100349.41
2023-09-14T04:03:51.932Z,100349.94
2023-09-14T04:06:21.042Z,100360.09
2023-09-14T04:08:48.678Z,100362.28
2023-09-14T04:11:16.604Z,100371.63
2023-09-14T04:13:45.527Z,100377.53
2023-09-14T04:16:13.539Z,100377.84
2023-09-14T04:18:41.154Z,100382.66
2023-09-14T04:21:08.963Z,100386.94
2023-09-14T04:23:36.434Z,100391.16
2023-09-14T04:26:04.507Z,100389.03
2023-09-14T04:28:31.893Z,100397.03
2023-09-14T04:31:01.482Z,100400.16
2023-09-14T04:33:29.165Z,100400.75
2023-09-14T04:35:57.429Z,100398.03
2023-09-14T04:38:24.858Z,100410.63
2023-09-14T04:40:52.714Z,100415.34
2023-09-14T04:43:20.164Z,100417.84
2023-09-14T04:45:48.004Z,100428.78
2023-09-14T04:48:16.946Z,100425.66
2023-09-14T04:50:44.849Z,100425.22
2023-09-14T04:53:12.296Z,100432.84
2023-09-14T04:55:40.224Z,100438.09
2023-09-14T04:58:08.003Z,100447.09
2023-09-14T05:00:35.942Z,100439.19
2023-09-14T05:03:03.802Z,100451.91
2023-09-14T05:05:33.778Z,100449.84
2023-09-14T05:08:01.498Z,100455.91
2023-09-14T05:10:45.473Z,100460.50
2023-09-14T05:13:24.202Z,100452.16
2023-09-14T05:16:03.380Z,100456.34
2023-09-14T05:18:33.628Z,100462.59
2023-09-14T05:21:03.304Z,100467.66
2023-09-14T05:23:30.627Z,100465.94
2023-09-14T05:25:58.384Z,100465.34
2023-09-14T05:28:25.830Z,100470.78
2023-09-14T05:30:53.756Z,100472.66
2023-09-14T05:33:21.138Z,100478.75
2023-09-14T05:35:49.256Z,100481.88
2023-09-14T05:38:18.170Z,100482.94
2023-09-14T05:40:45.970Z,100485.66
2023-09-14T05:43:13.621Z,100491.50
2023-09-14T05:45:42.810Z,100499.44
2023-09-14T05:48:10.335Z,100504.25
2023-09-14T05:50:38.272Z,100503.66
2023-09-14T05:53:05.641Z,100511.97
2023-09-14T05:55:34.998Z,100514.22
2023-09-14T05:58:04.638Z,100515.88
2023-09-14T06:00:32.463Z,100515.25
2023-09-14T06:03:00.206Z,100517.34
2023-09-14T06:05:28.297Z,100525.06
2023-09-14T06:07:56.141Z,100529.19
2023-09-14T06:10:23.980Z,100536.38
2023-09-14T06:12:52.860Z,100533.22
2023-09-14T06:15:20.834Z,100527.56
2023-09-14T06:17:48.639Z,100535.75
2023-09-14T06:20:16.989Z,100540.56
2023-09-14T06:22:44.464Z,100543.72
2023-09-14T06:25:12.337Z,100545.16
2023-09-14T06:27:39.847Z,100545.59
2023-09-14T06:30:10.541Z,100550.63
2023-09-14T06:32:38.055Z,100551.50
2023-09-14T06:35:06.879Z,100549.63
2023-09-14T06:37:34.322Z,100554.88
2023-09-14T06:40:02.260Z,100556.34
2023-09-14T06:42:29.724Z,100556.13
2023-09-14T06:44:57.534Z,100552.78
2023-09-14T06:47:26.367Z,100555.50
2023-09-14T06:49:54.057Z,100566.59
2023-09-14T06:52:21.519Z,100565.56
2023-09-14T06:54:49.377Z,100559.88
2023-09-14T06:57:16.955Z,100572.03
2023-09-14T06:59:44.927Z,100570.78
2023-09-14T07:02:12.477Z,100564.28
2023-09-14T07:04:41.881Z,100573.06
2023-09-14T07:07:09.641Z,100580.97
2023-09-14T07:09:37.462Z,100578.28
2023-09-14T07:12:05.690Z,100569.72
2023-09-14T07:14:35.250Z,100582.03
2023-09-14T07:17:03.229Z,100581.38
2023-09-14T07:19:31.281Z,100583.97
2023-09-14T07:22:00.296Z,100588.16
2023-09-14T07:24:28.304Z,100598.19
2023-09-14T07:26:55.857Z,100601.94
2023-09-14T07:29:23.523Z,100598.16
2023-09-14T07:31:51.026Z,100608.19
2023-09-14T07:34:18.865Z,100606.31
2023-09-14T07:36:46.436Z,100608.84
2023-09-14T07:39:15.795Z,100610.75
2023-09-14T07:41:43.713Z,100614.69
2023-09-14T07:44:11.600Z,100612.38
2023-09-14T07:46:39.334Z,100621.81
2023-09-14T07:49:07.212Z,100622.22
2023-09-14T07:51:34.627Z,100626.84
2023-09-14T07:54:02.616Z,100625.59
2023-09-14T07:56:31.597Z,100624.56
2023-09-14T07:58:59.414Z,100625.59
2023-09-14T08:01:26.942Z,100627.47
2023-09-14T08:03:54.978Z,100629.56
2023-09-14T08:06:24.527Z,100625.97
2023-09-14T08:08:52.770Z,100630.38
2023-09-14T08:11:20.271Z,100634.16
2023-09-14T08:13:49.327Z,100644.63
2023-09-14T08:16:16.881Z,100644.66
2023-09-14T08:18:44.891Z,100648.81
2023-09-14T08:21:12.215Z,100646.53
2023-09-14T08:23:40.004Z,100649.28
2023-09-14T08:26:07.491Z,100657.44
2023-09-14T08:28:35.356Z,100660.34
2023-09-14T08:31:04.314Z,100654.25
2023-09-14T08:33:32.187Z,100656.59
2023-09-14T08:35:59.828Z,100658.88
2023-09-14T08:38:27.587Z,100665.78
2023-09-14T08:40:58.414Z,100657.63
2023-09-14T08:43:26.235Z,100665.19
2023-09-14T08:45:54.895Z,100651.78
2023-09-14T08:48:27.366Z,100662.44
2023-09-14T08:50:55.859Z,100663.28
2023-09-14T08:53:24.704Z,100664.34
2023-09-14T08:55:52.276Z,100666.63
2023-09-14T08:58:21.518Z,100669.72
2023-09-14T09:00:49.190Z,100673.09
2023-09-14T09:03:17.216Z,100675.84
2023-09-14T09:05:46.673Z,100681.25
2023-09-14T09:08:15.040Z,100681.47
2023-09-14T09:10:43.882Z,100681.69
2023-09-14T09:13:12.478Z,100675.63
2023-09-14T09:15:39.897Z,100675.66
2023-09-14T09:18:09.158Z,100681.69
2023-09-14T09:20:38.488Z,100681.03
2023-09-14T09:23:08.589Z,100681.47
2023-09-14T09:25:47.207Z,100679.53
2023-09-14T09:28:29.308Z,100681.38
2023-09-14T09:31:01.623Z,100679.16
2023-09-14T09:33:35.839Z,100681.81
2023-09-14T09:36:20.396Z,100679.22
2023-09-14T09:38:53.704Z,100679.66
2023-09-14T09:41:21.288Z,100678.63
2023-09-14T09:43:50.458Z,100675.84
2023-09-14T09:46:22.818Z,100678.84
2023-09-14T09:48:51.084Z,100685.13
2023-09-14T09:51:21.510Z,100683.72
2023-09-14T09:54:08.360Z,100683.16
2023-09-14T09:56:36.620Z,100682.75
2023-09-14T09:59:04.900Z,100680.63
2023-09-14T10:01:32.476Z,100686.44
2023-09-14T10:04:00.744Z,100679.75
2023-09-14T10:06:28.498Z,100682.22
2023-09-14T10:08:56.954Z,100683.28
2023-09-14T10:11:26.267Z,100675.88
2023-09-14T10:13:54.485Z,100681.53
2023-09-14T10:16:23.764Z,100679.25
2023-09-14T10:18:59.421Z,100680.72
2023-09-14T10:21:28.880Z,100674.75
2023-09-14T10:23:57.451Z,100675.44
2023-09-14T10:26:30.774Z,100681.28
2023-09-14T10:28:58.626Z,100682.94
2023-09-14T10:31:27.100Z,100686.19
2023-09-14T10:33:56.246Z,100682.53
2023-09-14T10:36:23.876Z,100682.47
2023-09-14T10:38:52.165Z,100675.19
2023-09-14T10:41:19.834Z,100684.41
2023-09-14T10:43:59.424Z,100681.78
2023-09-14T10:46:31.595Z,100681.56
2023-09-14T10:49:05.247Z,100680.75
2023-09-14T10:51:37.547Z,100682.38
2023-09-14T10:54:10.234Z,100680.00
2023-09-14T10:56:37.777Z,100680.34
2023-09-14T10:59:14.887Z,100672.84
2023-09-14T11:01:53.902Z,100680.97
2023-09-14T11:04:23.667Z,100682.75
2023-09-14T11:06:54.388Z,100682.13
2023-09-14T11:09:29.721Z,100682.66
2023-09-14T11:11:59.762Z,100682.94
2023-09-14T11:14:32.116Z,100680.59
2023-09-14T11:17:04.897Z,100689.66
2023-09-14T11:19:55.647Z,100681.75
2023-09-14T11:22:29.567Z,100679.69
2023-09-14T11:25:00.595Z,100691.31
2023-09-14T11:27:33.684Z,100691.84
2023-09-14T11:30:14.734Z,100696.56
2023-09-14T11:32:48.737Z,100701.44
2023-09-14T11:35:19.246Z,100696.50
2023-09-14T11:37:50.167Z,100693.13
2023-09-14T11:40:25.782Z,100694.69
2023-09-14T11:51:00.101Z,100698.34
2023-09-14T11:53:34.984Z,100693.50
2023-09-14T11:56:04.635Z,100700.81
2023-09-14T11:58:34.193Z,100702.03
2023-09-14T12:01:07.922Z,100703.72
2023-09-14T12:03:43.482Z,100711.31
2023-09-14T12:06:11.739Z,100707.19
2023-09-14T12:08:46.631Z,100717.50
2023-09-14T12:11:14.658Z,100708.44
2023-09-14T12:13:50.175Z,100710.34
2023-09-14T12:16:22.612Z,100712.66
2023-09-14T12:18:51.066Z,100711.75
2023-09-14T12:21:20.458Z,100714.50
2023-09-14T12:23:59.509Z,100706.63
2023-09-14T12:26:27.594Z,100707.66
2023-09-14T12:28:59.261Z,100711.41
2023-09-14T12:31:29.233Z,100712.06
2023-09-14T12:33:56.811Z,100711.94
2023-09-14T12:36:25.169Z,100719.31
2023-09-14T12:38:53.013Z,100714.28
2023-09-14T12:41:21.072Z,100716.81
2023-09-14T12:43:48.891Z,100716.50
2023-09-14T12:46:20.963Z,100710.56
2023-09-14T12:49:00.424Z,100713.69
2023-09-14T12:51:28.566Z,100711.06
2023-09-14T12:53:57.067Z,100716.94
2023-09-14T12:56:25.732Z,100716.16
2023-09-14T12:59:02.664Z,100721.66
2023-09-14T13:01:30.627Z,100715.72
2023-09-14T13:04:05.454Z,100713.34
2023-09-14T13:06:38.029Z,100714.75
2023-09-14T13:09:07.211Z,100715.94
2023-09-14T13:11:36.350Z,100712.22
2023-09-14T13:14:11.426Z,100713.28
2023-09-14T13:16:53.999Z,100715.25
2023-09-14T13:19:23.253Z,100713.53
2023-09-14T13:21:51.123Z,100713.22
2023-09-14T13:24:23.468Z,100713.41
2023-09-14T13:26:56.229Z,100714.38
2023-09-14T13:29:23.648Z,100710.09
2023-09-14T13:31:51.478Z,100712.16
2023-09-14T13:34:23.410Z,100709.00
2023-09-14T13:36:55.009Z,100710.47
2023-09-14T13:39:22.526Z,100707.56
2023-09-14T13:41:52.685Z,100703.53
2023-09-14T13:44:21.268Z,100707.50
2023-09-14T13:46:49.080Z,100703.63
2023-09-14T13:49:22.800Z,100708.44
2023-09-14T13:52:11.396Z,100697.94
2023-09-14T13:54:38.878Z,100690.69
2023-09-14T13:57:06.734Z,100695.13
2023-09-14T13:59:34.363Z,100697.50
2023-09-14T14:02:02.471Z,100686.16
2023-09-14T14:04:30.009Z,100689.75
2023-09-14T14:06:57.784Z,100692.28
2023-09-14T14:09:26.725Z,100686.19
2023-09-14T14:11:58.395Z,100684.56
2023-09-14T14:14:36.700Z,100681.25
2023-09-14T14:17:05.692Z,100677.91
2023-09-14T14:19:33.215Z,100684.84
2023-09-14T14:22:01.394Z,100682.69
2023-09-14T14:24:30.401Z,100685.00
2023-09-14T14:26:58.621Z,100681.06
2023-09-14T14:29:26.044Z,100677.81
2023-09-14T14:31:53.989Z,100679.22
2023-09-14T14:34:21.409Z,100670.75
2023-09-14T14:36:49.194Z,100675.88
2023-09-14T14:39:16.862Z,100680.53
2023-09-14T14:41:46.951Z,100675.66
2023-09-14T14:44:17.488Z,100676.81
2023-09-14T14:46:45.443Z,100682.69
2023-09-14T14:49:12.778Z,100688.19
2023-09-14T14:51:40.781Z,100685.78
2023-09-14T14:54:08.282Z,100688.91
2023-09-14T14:56:36.129Z,100683.78
2023-09-14T14:59:05.408Z,100682.69
2023-09-14T15:01:33.516Z,100686.00
2023-09-14T15:04:01.076Z,100688.97
2023-09-14T15:06:34.186Z,100683.72
2023-09-14T15:09:01.699Z,100690.47
2023-09-14T15:11:29.585Z,100687.72
2023-09-14T15:13:57.043Z,100688.69
2023-09-14T15:16:26.472Z,100688.44
2023-09-14T15:18:54.041Z,100694.56
2023-09-14T15:21:21.799Z,100694.13
2023-09-14T15:23:50.047Z,100698.50
2023-09-14T15:26:17.766Z,100698.41
2023-09-14T15:28:45.660Z,100694.25
2023-09-14T15:31:14.328Z,100694.69
2023-09-14T15:33:46.626Z,100693.47
2023-09-14T15:36:17.552Z,100697.19
2023-09-14T15:38:45.464Z,100702.19
2023-09-14T15:41:16.648Z,100707.88
2023-09-14T15:43:47.204Z,100703.25
2023-09-14T15:46:18.678Z,100708.22
2023-09-14T15:48:50.729Z,100709.19
2023-09-14T15:51:20.484Z,100707.31
2023-09-14T15:53:47.827Z,100711.47
2023-09-14T15:56:15.692Z,100716.31
2023-09-14T15:58:43.199Z,100719.66
2023-09-14T16:01:11.207Z,100716.19
2023-09-14T16:03:39.054Z,100720.59
2023-09-14T16:06:08.610Z,100724.91
2023-09-14T16:08:35.924Z,100715.44
2023-09-14T16:11:03.737Z,100720.91
2023-09-14T16:13:33.021Z,100721.50
2023-09-14T16:16:01.041Z,100722.25
2023-09-14T16:18:30.448Z,100723.09
2023-09-14T16:20:58.345Z,100729.88
2023-09-14T16:23:28.292Z,100726.91
2023-09-14T16:26:00.369Z,100726.25
2023-09-14T16:28:27.509Z,100728.94
2023-09-14T16:31:01.607Z,100732.97
2023-09-14T16:33:29.185Z,100733.63
2023-09-14T16:36:09.546Z,100737.91
2023-09-14T16:38:42.401Z,100727.03
2023-09-14T16:41:11.736Z,100730.44
2023-09-14T16:43:39.222Z,100723.78
2023-09-14T16:46:07.810Z,100721.41
2023-09-14T16:48:36.749Z,100725.13
2023-09-14T16:51:04.809Z,100717.91
2023-09-14T16:53:32.309Z,100717.78
2023-09-14T16:56:01.821Z,100720.34
2023-09-14T16:58:33.821Z,100728.41
2023-09-14T17:01:01.905Z,100715.69
2023-09-14T17:03:32.001Z,100723.81
2023-09-14T17:06:00.265Z,100721.75
2023-09-14T17:08:32.484Z,100723.81
2023-09-14T17:11:01.924Z,100721.75
2023-09-14T17:13:32.241Z,100730.63
2023-09-14T17:16:00.165Z,100730.47
2023-09-14T17:18:27.743Z,100734.72
2023-09-14T17:20:57.458Z,100734.94
2023-09-14T17:23:24.957Z,100739.16
2023-09-14T17:25:52.926Z,100731.41
2023-09-14T17:28:29.683Z,100742.81
2023-09-14T17:30:57.648Z,100740.91
2023-09-14T17:33:27.958Z,100740.53
2023-09-14T17:36:05.342Z,100744.97
2023-09-14T17:38:32.972Z,100744.00
2023-09-14T17:41:00.840Z,100746.75
2023-09-14T17:43:32.849Z,100747.91
2023-09-14T17:46:01.652Z,100749.34
2023-09-14T17:48:33.414Z,100749.34
2023-09-14T17:51:01.529Z,100751.47
2023-09-14T17:53:32.034Z,100752.28
2023-09-14T17:55:59.854Z,100756.34
2023-09-14T17:58:36.375Z,100747.59
2023-09-14T18:01:04.214Z,100751.03
2023-09-14T18:03:32.075Z,100755.25
2023-09-14T18:05:59.868Z,100750.84
2023-09-14T18:08:27.355Z,100765.75
2023-09-14T18:10:55.212Z,100756.38
2023-09-14T18:13:22.723Z,100756.00
2023-09-14T18:15:54.993Z,100766.59
2023-09-14T18:18:22.219Z,100763.03
2023-09-14T18:20:50.777Z,100764.56
2023-09-14T18:23:18.311Z,100771.72
2023-09-14T18:25:51.572Z,100771.47
2023-09-14T18:28:34.573Z,100771.72
2023-09-14T18:31:27.629Z,100777.44
2023-09-14T18:33:55.174Z,100775.97
2023-09-14T18:36:26.011Z,100771.16
2023-09-14T18:38:53.534Z,100779.13
2023-09-14T18:41:21.994Z,100777.44
2023-09-14T18:43:49.454Z,100782.47
2023-09-14T18:46:23.188Z,100788.75
2023-09-14T18:48:54.147Z,100791.91
2023-09-14T18:51:22.137Z,100789.97
2023-09-14T18:53:52.590Z,100791.00
2023-09-14T18:56:41.159Z,100793.91
2023-09-14T18:59:32.721Z,100796.84
2023-09-14T19:02:06.791Z,100794.94
2023-09-14T19:04:42.363Z,100796.53
2023-09-14T19:07:13.436Z,100793.19
2023-09-14T19:09:43.656Z,100806.31
2023-09-14T19:12:13.281Z,100801.88
2023-09-14T19:14:46.924Z,100804.13
2023-09-14T19:17:19.668Z,100808.84
2023-09-14T19:19:55.226Z,100805.06
2023-09-14T19:22:31.631Z,100804.94
2023-09-14T19:24:59.129Z,100805.69
2023-09-14T19:27:27.034Z,100803.72
2023-09-14T19:29:54.850Z,100800.06
2023-09-14T19:32:30.508Z,100804.75
2023-09-14T19:34:58.790Z,100802.41
2023-09-14T19:37:27.446Z,100806.31
2023-09-14T19:39:54.877Z,100815.06
2023-09-14T19:42:22.729Z,100811.00
2023-09-14T19:44:50.528Z,100812.88
2023-09-14T19:47:18.437Z,100809.50
2023-09-14T19:49:49.198Z,100807.94
2023-09-14T19:52:17.010Z,100818.78
2023-09-14T19:54:44.630Z,100817.22
2023-09-14T19:57:12.619Z,100813.59
2023-09-14T19:59:39.944Z,100815.53
2023-09-14T20:02:07.839Z,100819.28
2023-09-14T20:04:36.604Z,100817.34
2023-09-14T20:07:10.099Z,100816.63
2023-09-14T20:09:37.546Z,100814.84
2023-09-14T20:12:05.725Z,100822.72
2023-09-14T20:14:33.298Z,100829.63
2023-09-14T20:17:01.566Z,100820.00
2023-09-14T20:19:29.683Z,100818.13
2023-09-14T20:21:57.691Z,100817.00
2023-09-14T20:24:30.070Z,100821.03
2023-09-14T20:26:58.246Z,100816.56
2023-09-14T20:29:25.658Z,100816.34
2023-09-14T20:31:53.508Z,100820.28
2023-09-14T20:34:20.915Z,100818.88
2023-09-14T20:36:48.661Z,100822.44
2023-09-14T20:39:16.104Z,100827.69
2023-09-14T20:41:45.376Z,100819.84
2023-09-14T20:44:12.826Z,100817.13
2023-09-14T20:46:40.851Z,100815.81
2023-09-14T20:49:08.487Z,100817.22
2023-09-14T20:51:36.264Z,100823.03
2023-09-14T20:54:03.839Z,100821.41
2023-09-14T20:56:31.951Z,100825.13
2023-09-14T20:59:01.009Z,100824.47
2023-09-14T21:01:36.298Z,100822.38
2023-09-14T21:04:03.939Z,100824.94
2023-09-14T21:06:31.720Z,100820.50
2023-09-14T21:08:59.361Z,100816.94
2023-09-14T21:11:27.176Z,100820.00
2023-09-14T21:13:54.692Z,100825.78
2023-09-14T21:16:23.996Z,100823.91
2023-09-14T21:18:51.403Z,100829.06
2023-09-14T21:21:19.189Z,100838.75
2023-09-14T21:23:46.652Z,100830.25
2023-09-14T21:26:14.515Z,100831.66
2023-09-14T21:28:41.932Z,100828.94
2023-09-14T21:31:09.949Z,100831.66
2023-09-14T21:33:38.872Z,100829.78
2023-09-14T21:36:07.453Z,100837.44
2023-09-14T21:38:34.939Z,100834.38
2023-09-14T21:41:04.261Z,100827.47
2023-09-14T21:43:33.306Z,100828.50
2023-09-14T21:46:01.176Z,100832.94
2023-09-14T21:48:28.686Z,100823.16
2023-09-14T21:51:02.173Z,100825.47
2023-09-14T21:53:29.808Z,100825.72
2023-09-14T21:55:57.940Z,100828.16
2023-09-14T21:58:25.830Z,100821.03
2023-09-14T22:00:53.928Z,100831.06
2023-09-14T22:03:21.490Z,100833.59
2023-09-14T22:05:49.967Z,100830.78
2023-09-14T22:08:19.035Z,100826.50
2023-09-14T22:11:00.150Z,100817.84
2023-09-14T22:13:27.655Z,100822.91
2023-09-14T22:15:59.449Z,100821.38
2023-09-14T22:18:27.252Z,100828.63
2023-09-14T22:20:57.006Z,100825.69
2023-09-14T22:23:26.116Z,100826.75
2023-09-14T22:25:54.015Z,100824.97
2023-09-14T22:28:23.868Z,100826.31
2023-09-14T22:30:51.834Z,100826.66
2023-09-14T22:33:19.304Z,100819.69
2023-09-14T22:35:47.070Z,100831.91
2023-09-14T22:38:14.637Z,100830.88
2023-09-14T22:40:44.024Z,100832.72
2023-09-14T22:43:11.505Z,100827.97
2023-09-14T22:45:39.146Z,100828.63
2023-09-14T22:48:07.149Z,100824.78
2023-09-14T22:50:35.165Z,100841.13
2023-09-14T22:53:02.797Z,100826.47
2023-09-14T22:55:31.139Z,100826.47
2023-09-14T22:57:59.915Z,100830.50
2023-09-14T23:00:30.736Z,100828.81
2023-09-14T23:02:58.273Z,100824.59
2023-09-14T23:05:31.080Z,100823.50
2023-09-14T23:07:58.515Z,100828.53
2023-09-14T23:10:26.220Z,100833.00
2023-09-14T23:12:53.738Z,100824.97
2023-09-14T23:15:23.139Z,100828.16
2023-09-14T23:17:50.821Z,100832.00
2023-09-14T23:20:18.792Z,100832.69
2023-09-14T23:22:46.270Z,100822.88
2023-09-14T23:25:14.225Z,100827.72
2023-09-14T23:27:41.740Z,100826.38
2023-09-14T23:30:10.060Z,100821.91
2023-09-14T23:32:38.818Z,100817.63
2023-09-14T23:35:07.513Z,100823.22
2023-09-14T23:37:35.302Z,100822.19
2023-09-14T23:40:03.176Z,100824.06
2023-09-14T23:42:30.683Z,100829.78
2023-09-14T23:44:58.450Z,100825.03
2023-09-14T23:47:25.866Z,100825.31
2023-09-14T23:49:55.179Z,100822.63
2023-09-14T23:52:24.592Z,100829.06
2023-09-14T23:54:52.425Z,100827.69
2023-09-14T23:57:19.841Z,100825.91
2023-09-14T23:59:47.564Z,100819.91
